createdAt,value
2023-07-03T00:17:35.997Z,15.72
2023-07-03T00:37:35.965Z,15.72
2023-07-03T00:57:35.959Z,15.71
2023-07-03T01:17:35.909Z,15.71
2023-07-03T01:57:35.856Z,15.7
2023-07-03T02:17:35.860Z,15.7
2023-07-03T02:37:35.797Z,15.68
2023-07-03T02:57:35.754Z,15.67
2023-07-03T03:17:35.794Z,15.65
2023-07-03T03:37:35.712Z,15.64
2023-07-03T03:57:35.692Z,15.63
2023-07-03T04:17:35.681Z,15.62
2023-07-03T04:37:35.828Z,15.61
2023-07-03T04:57:35.607Z,15.61
2023-07-03T05:17:35.598Z,15.61
2023-07-03T05:37:35.553Z,15.6
2023-07-03T05:57:35.522Z,15.59
2023-07-03T06:17:35.499Z,15.57
2023-07-03T06:57:35.434Z,15.54
2023-07-03T07:17:46.186Z,15.53
2023-07-03T07:37:35.383Z,15.52
2023-07-03T07:57:35.349Z,15.51
2023-07-03T08:17:35.338Z,15.51
2023-07-03T08:37:35.290Z,15.51
2023-07-03T08:57:36.727Z,15.51
2023-07-03T09:17:35.229Z,15.5
2023-07-03T09:37:35.187Z,15.5
2023-07-03T09:57:35.185Z,15.5
2023-07-03T10:17:35.345Z,15.49
2023-07-03T10:37:35.097Z,15.49
2023-07-03T10:57:35.865Z,15.48
2023-07-03T11:17:35.551Z,15.48
2023-07-03T11:57:35.032Z,15.46
2023-07-03T12:17:34.962Z,15.46
2023-07-03T12:37:34.898Z,15.46
2023-07-03T12:57:34.868Z,15.45
2023-07-03T13:17:34.867Z,15.45
2023-07-03T13:37:34.796Z,15.45
2023-07-03T13:57:34.771Z,15.45
2023-07-03T14:17:34.828Z,15.45
2023-07-03T14:37:34.695Z,15.45
2023-07-03T14:57:34.675Z,15.46
2023-07-03T15:17:34.644Z,15.46
2023-07-03T15:37:34.590Z,15.46
2023-07-03T15:57:34.562Z,15.47
2023-07-03T16:17:34.553Z,15.47
2023-07-03T16:57:34.467Z,15.48
2023-07-03T17:17:34.458Z,15.49
2023-07-03T17:57:34.380Z,15.5
2023-07-03T18:17:34.363Z,15.5
2023-07-03T18:37:34.309Z,15.5
2023-07-03T18:57:34.293Z,15.5
2023-07-03T19:17:34.259Z,15.5
2023-07-03T19:37:34.217Z,15.5
2023-07-03T19:57:34.204Z,15.5
2023-07-03T20:17:34.178Z,15.5
2023-07-03T20:37:34.146Z,15.5
2023-07-03T21:17:34.050Z,15.51
2023-07-03T21:37:34.023Z,15.5
2023-07-03T21:57:34.016Z,15.5
2023-07-03T22:57:33.916Z,15.5
2023-07-03T23:37:33.856Z,15.5
2023-07-03T23:57:33.826Z,15.5
